Time;durP1;ratioP1;P1;durP2;ratioP2;P2;SDS_P1;SDS_P2;PMS_P1;PMS_P2;Temp;Humidity;BMP_temperature;BMP_pressure;BME280_temperature;BME280_humidity;BME280_pressure;Samples;Min_cycle;Max_cycle;Signal;HPM_P1;HPM_P2
2023/12/03 00:00:58;;;;;;;37.30;16.80;;;-2.00;96.60;;;;;;4995121;28;20886;-66
2023/12/03 00:03:24;;;;;;;39.23;18.23;;;-1.80;96.70;;;;;;4974477;28;21420;-67
2023/12/03 00:05:51;;;;;;;51.53;20.57;;;-1.70;96.60;;;;;;4989273;28;20885;-67
2023/12/03 00:08:18;;;;;;;39.33;18.90;;;-1.50;96.60;;;;;;4990529;28;20473;-68
2023/12/03 00:10:45;;;;;;;34.80;17.97;;;-1.50;96.40;;;;;;4996953;28;20483;-67
2023/12/03 00:13:14;;;;;;;33.47;16.63;;;-1.40;96.50;;;;;;4996786;28;20488;-66
2023/12/03 00:15:40;;;;;;;52.03;18.80;;;-1.30;96.40;;;;;;4984953;28;21061;-67
2023/12/03 00:18:08;;;;;;;43.13;19.07;;;;;;;;;;5003315;28;20551;-67
2023/12/03 00:20:34;;;;;;;45.53;19.77;;;-1.30;95.90;;;;;;5001579;28;20517;-67
2023/12/03 00:23:03;;;;;;;37.17;17.90;;;-1.30;95.80;;;;;;4990212;28;20473;-67
2023/12/03 00:25:29;;;;;;;46.20;20.10;;;-1.30;95.60;;;;;;4977235;28;20564;-66
2023/12/03 00:27:56;;;;;;;38.63;15.90;;;-1.30;95.30;;;;;;4995471;28;20477;-67
2023/12/03 00:30:24;;;;;;;41.13;18.53;;;-1.40;95.50;;;;;;5005830;28;20535;-67
2023/12/03 00:32:51;;;;;;;39.03;19.60;;;-1.40;95.60;;;;;;4991308;28;20823;-67
2023/12/03 00:35:18;;;;;;;41.90;19.23;;;;;;;;;;5002964;28;21036;-67
2023/12/03 00:37:45;;;;;;;37.93;18.33;;;-1.40;95.70;;;;;;4971453;28;20553;-67
2023/12/03 00:40:13;;;;;;;37.53;19.60;;;-1.30;95.60;;;;;;4986098;28;20488;-67
2023/12/03 00:42:40;;;;;;;38.70;19.30;;;-1.30;95.30;;;;;;4981793;28;20961;-67
2023/12/03 00:45:07;;;;;;;34.57;17.00;;;-1.30;95.10;;;;;;4999323;28;20545;-67
2023/12/03 00:47:35;;;;;;;44.83;19.60;;;-1.40;94.90;;;;;;4980845;28;20535;-66
2023/12/03 00:50:06;;;;;;;43.40;17.50;;;-1.60;95.10;;;;;;4996179;28;21022;-67
2023/12/03 00:52:33;;;;;;;41.07;18.83;;;;;;;;;;4954434;28;20487;-67
2023/12/03 00:55:02;;;;;;;79.27;22.07;;;-1.70;95.40;;;;;;4962011;28;20481;-67
2023/12/03 00:57:30;;;;;;;37.93;17.50;;;-1.70;95.20;;;;;;4984353;28;20560;-67
2023/12/03 00:59:57;;;;;;;44.50;21.67;;;-1.90;95.80;;;;;;4996367;28;22000;-67
2023/12/03 01:02:24;;;;;;;46.47;20.63;;;-2.00;96.10;;;;;;4954686;28;20905;-67
2023/12/03 01:04:52;;;;;;;38.73;17.03;;;-2.00;96.10;;;;;;5004346;28;21052;-67
2023/12/03 01:07:19;;;;;;;35.73;18.40;;;-2.00;96.20;;;;;;4976593;28;20517;-67
2023/12/03 01:09:46;;;;;;;40.30;18.87;;;-2.00;96.00;;;;;;4990494;28;20527;-67
2023/12/03 01:12:13;;;;;;;34.83;18.00;;;-1.90;95.90;;;;;;4988431;28;20497;-67
2023/12/03 01:14:40;;;;;;;41.13;19.20;;;-2.00;95.70;;;;;;5003849;28;20484;-67
2023/12/03 01:17:06;;;;;;;41.37;18.23;;;-2.20;95.80;;;;;;4978342;28;20772;-67
2023/12/03 01:19:33;;;;;;;41.97;18.60;;;-2.20;96.00;;;;;;4998223;28;20546;-67
2023/12/03 01:22:02;;;;;;;39.90;18.87;;;-2.30;96.20;;;;;;4983050;28;20484;-67
2023/12/03 01:24:29;;;;;;;63.03;19.07;;;-2.30;96.40;;;;;;4992570;28;21046;-67
2023/12/03 01:26:56;;;;;;;30.57;16.00;;;-2.30;96.50;;;;;;4990809;28;20552;-67
2023/12/03 01:29:23;;;;;;;43.27;17.67;;;-2.40;96.30;;;;;;4993405;28;20479;-67
2023/12/03 01:31:50;;;;;;;39.43;19.57;;;-2.60;96.20;;;;;;4966351;28;20481;-67
2023/12/03 01:34:16;;;;;;;42.53;21.30;;;-2.70;96.70;;;;;;5003369;28;20476;-66
2023/12/03 01:36:43;;;;;;;46.53;18.77;;;-2.80;97.00;;;;;;4996045;28;20600;-66
2023/12/03 01:39:13;;;;;;;38.90;17.60;;;-2.70;97.30;;;;;;4981789;28;20473;-66
2023/12/03 01:41:40;;;;;;;38.83;17.30;;;-2.60;97.40;;;;;;4996364;28;20476;-66
2023/12/03 01:44:07;;;;;;;40.90;16.80;;;-2.50;97.20;;;;;;4980244;28;20485;-67
2023/12/03 01:46:33;;;;;;;32.77;15.83;;;-2.60;96.90;;;;;;5007448;28;20488;-67
2023/12/03 01:49:01;;;;;;;44.23;19.70;;;-2.60;96.90;;;;;;4974753;28;21655;-66
2023/12/03 01:51:28;;;;;;;43.60;18.13;;;-2.70;96.90;;;;;;4986299;28;20554;-67
2023/12/03 01:53:55;;;;;;;42.43;18.63;;;-2.70;97.00;;;;;;5003800;28;21096;-66
2023/12/03 01:56:24;;;;;;;53.60;21.70;;;-2.70;97.00;;;;;;4994686;28;20855;-66
2023/12/03 01:58:51;;;;;;;42.23;20.10;;;-2.80;97.10;;;;;;4988196;28;20577;-67
2023/12/03 02:01:19;;;;;;;49.60;23.00;;;;;;;;;;4994122;28;20592;-66
2023/12/03 02:03:46;;;;;;;69.00;26.23;;;-2.90;97.50;;;;;;4975910;28;20469;-66
2023/12/03 02:06:13;;;;;;;37.17;21.47;;;-2.90;97.50;;;;;;5004559;28;20488;-66
2023/12/03 02:08:39;;;;;;;45.77;21.63;;;-2.90;97.60;;;;;;5005381;28;20484;-66
2023/12/03 02:11:07;;;;;;;47.83;21.50;;;-2.90;97.70;;;;;;4999581;28;20492;-67
2023/12/03 02:13:38;;;;;;;46.23;20.37;;;-2.90;97.70;;;;;;4968413;28;20485;-66
2023/12/03 02:16:06;;;;;;;46.80;23.53;;;-2.90;97.70;;;;;;5005361;28;20562;-66
2023/12/03 02:18:33;;;;;;;45.20;20.60;;;-2.80;97.90;;;;;;4990721;28;20526;-66
2023/12/03 02:21:01;;;;;;;47.90;24.20;;;;;;;;;;4998569;28;20589;-67
2023/12/03 02:23:30;;;;;;;56.40;26.03;;;-2.80;98.30;;;;;;4995873;28;20562;-66
2023/12/03 02:25:57;;;;;;;44.57;19.97;;;-2.80;98.50;;;;;;4998074;28;20562;-67
2023/12/03 02:28:24;;;;;;;45.20;19.70;;;-2.70;98.60;;;;;;4997918;28;20486;-66
2023/12/03 02:30:51;;;;;;;36.50;18.57;;;-2.40;98.80;;;;;;5000312;28;20929;-67
2023/12/03 02:33:18;;;;;;;67.77;21.87;;;-2.20;98.60;;;;;;4991551;28;20506;-66
2023/12/03 02:35:45;;;;;;;43.40;19.17;;;-2.10;98.40;;;;;;5008580;28;20485;-66
2023/12/03 02:38:12;;;;;;;65.80;19.77;;;-2.00;98.00;;;;;;4985748;28;20870;-66
2023/12/03 02:40:40;;;;;;;43.27;20.40;;;-1.90;98.10;;;;;;4993840;28;20485;-66
2023/12/03 02:43:07;;;;;;;40.83;21.07;;;-1.90;98.10;;;;;;4991144;28;20473;-66
2023/12/03 02:45:34;;;;;;;56.00;19.93;;;-1.80;98.30;;;;;;4999538;28;20477;-66
2023/12/03 02:48:01;;;;;;;49.50;23.50;;;-1.80;98.30;;;;;;4974490;28;20493;-67
2023/12/03 02:50:28;;;;;;;43.97;23.27;;;-1.80;98.40;;;;;;4992549;28;20504;-67
2023/12/03 02:52:55;;;;;;;44.83;20.50;;;-1.80;98.50;;;;;;4987500;28;20930;-67
2023/12/03 02:55:22;;;;;;;45.13;23.67;;;-1.80;98.40;;;;;;4999473;28;20646;-67
2023/12/03 02:57:50;;;;;;;51.50;22.97;;;-1.70;98.40;;;;;;5001833;28;20542;-67
2023/12/03 03:00:17;;;;;;;64.23;24.07;;;-1.60;98.60;;;;;;4988504;28;20516;-67
2023/12/03 03:02:44;;;;;;;58.97;25.17;;;-1.50;98.40;;;;;;4964950;28;20490;-67
2023/12/03 03:05:11;;;;;;;50.80;22.33;;;-1.40;98.20;;;;;;5007309;28;21055;-67
2023/12/03 03:07:38;;;;;;;44.67;20.43;;;-1.20;97.70;;;;;;4966884;28;20854;-67
2023/12/03 03:10:06;;;;;;;44.00;18.90;;;-1.20;97.70;;;;;;5007739;28;20538;-67
2023/12/03 03:12:33;;;;;;;63.10;20.93;;;-1.20;97.90;;;;;;4968653;28;20535;-67
2023/12/03 03:15:01;;;;;;;55.90;24.93;;;-1.20;97.90;;;;;;4970760;28;20545;-67
2023/12/03 03:17:28;;;;;;;55.00;25.33;;;-1.30;97.90;;;;;;4992760;28;20807;-67
2023/12/03 03:19:58;;;;;;;75.33;25.63;;;-1.40;97.80;;;;;;4989474;28;20496;-67
2023/12/03 03:22:24;;;;;;;45.93;22.70;;;-1.40;97.50;;;;;;4987498;28;20496;-68
2023/12/03 03:24:52;;;;;;;30.87;15.20;;;-1.40;97.60;;;;;;5008428;28;20476;-68
2023/12/03 03:27:19;;;;;;;54.60;23.00;;;-1.50;97.70;;;;;;4973742;28;20578;-67
2023/12/03 03:29:46;;;;;;;50.03;24.43;;;-1.50;97.70;;;;;;4997103;28;20555;-67
2023/12/03 03:32:14;;;;;;;54.07;22.43;;;-1.40;98.00;;;;;;5003795;28;20893;-67
2023/12/03 03:34:41;;;;;;;59.93;22.73;;;-1.40;97.80;;;;;;4985997;28;20489;-67
2023/12/03 03:37:08;;;;;;;52.83;21.70;;;-1.30;97.80;;;;;;5000096;28;21039;-67
2023/12/03 03:39:35;;;;;;;54.60;27.67;;;-1.30;97.80;;;;;;4997989;28;20491;-67
2023/12/03 03:42:02;;;;;;;51.23;24.37;;;-1.30;97.60;;;;;;4995155;28;20501;-67
2023/12/03 03:44:29;;;;;;;50.53;21.87;;;-1.30;97.60;;;;;;4953903;28;20523;-67
2023/12/03 03:46:56;;;;;;;65.07;19.20;;;-1.10;97.70;;;;;;4975022;28;20850;-67
2023/12/03 03:49:24;;;;;;;39.37;17.60;;;-1.10;97.70;;;;;;4991792;28;20484;-67
2023/12/03 03:51:51;;;;;;;39.40;19.60;;;-1.00;97.50;;;;;;4997629;28;20562;-67
2023/12/03 03:54:18;;;;;;;51.10;22.77;;;-1.00;97.60;;;;;;5014590;28;20477;-67
2023/12/03 03:56:47;;;;;;;49.33;24.23;;;-1.00;97.40;;;;;;4991613;28;20539;-67
2023/12/03 03:59:14;;;;;;;46.27;20.97;;;-1.00;97.40;;;;;;4998910;28;20987;-67
2023/12/03 04:01:43;;;;;;;43.33;17.97;;;-1.00;97.30;;;;;;4990317;28;21199;-67
2023/12/03 04:04:10;;;;;;;40.43;20.17;;;-0.90;97.30;;;;;;4957812;28;20480;-67
2023/12/03 04:06:39;;;;;;;25.60;12.80;;;-1.00;97.20;;;;;;4982979;28;21173;-67
2023/12/03 04:09:07;;;;;;;51.13;20.67;;;-0.90;97.50;;;;;;4998066;28;21060;-67
2023/12/03 04:11:39;;;;;;;25.10;10.73;;;-0.90;97.30;;;;;;4994624;28;20840;-68
2023/12/03 04:14:07;;;;;;;35.07;18.43;;;-0.90;97.30;;;;;;5003724;28;20929;-67
2023/12/03 04:16:34;;;;;;;51.30;16.90;;;-0.80;97.30;;;;;;4989951;28;20508;-68
2023/12/03 04:19:00;;;;;;;32.93;15.70;;;-0.80;97.20;;;;;;5011377;28;20513;-67
2023/12/03 04:21:27;;;;;;;78.93;18.63;;;-0.70;96.90;;;;;;5008246;28;21196;-67
2023/12/03 04:23:56;;;;;;;47.93;23.13;;;-0.70;96.90;;;;;;4977990;28;20543;-67
2023/12/03 04:26:23;;;;;;;44.97;19.10;;;-0.70;97.00;;;;;;4995149;28;20566;-67
2023/12/03 04:28:53;;;;;;;48.73;20.17;;;-0.70;97.20;;;;;;5003276;28;20992;-67
2023/12/03 04:31:23;;;;;;;70.07;25.13;;;-0.70;97.00;;;;;;5000278;28;20493;-67
2023/12/03 04:33:50;;;;;;;41.80;20.10;;;-0.70;97.00;;;;;;4994787;28;20496;-67
2023/12/03 04:36:17;;;;;;;47.20;19.73;;;-0.70;96.80;;;;;;4981672;28;20582;-67
2023/12/03 04:38:44;;;;;;;40.37;21.67;;;-0.70;96.90;;;;;;4977908;28;20535;-67
2023/12/03 04:41:13;;;;;;;36.47;18.20;;;-0.70;97.10;;;;;;4995359;28;20527;-68
2023/12/03 04:43:40;;;;;;;41.83;17.73;;;-0.70;97.30;;;;;;4977520;28;20489;-67
2023/12/03 04:46:08;;;;;;;45.00;23.13;;;-0.70;97.10;;;;;;4999368;28;21020;-66
2023/12/03 04:48:36;;;;;;;42.57;23.07;;;-0.80;97.00;;;;;;4981940;28;20838;-67
2023/12/03 04:51:03;;;;;;;50.23;27.57;;;-0.90;96.90;;;;;;5000008;28;20497;-68
2023/12/03 04:53:30;;;;;;;52.67;22.63;;;-1.00;96.70;;;;;;4994199;28;20582;-68
2023/12/03 04:55:57;;;;;;;44.43;18.00;;;-0.90;96.90;;;;;;4983304;28;20485;-67
2023/12/03 04:58:26;;;;;;;40.67;20.07;;;-0.90;97.10;;;;;;4984283;28;20562;-67
2023/12/03 05:00:53;;;;;;;51.97;25.13;;;-0.90;97.00;;;;;;4993596;28;20577;-69
2023/12/03 05:03:20;;;;;;;48.67;16.43;;;-0.90;97.00;;;;;;4980118;28;20531;-67
2023/12/03 05:05:47;;;;;;;31.97;13.50;;;-1.00;96.70;;;;;;5006633;28;20530;-68
2023/12/03 05:08:14;;;;;;;36.07;15.77;;;-0.90;96.90;;;;;;4980048;28;21018;-67
2023/12/03 05:10:41;;;;;;;39.37;18.60;;;-0.80;97.00;;;;;;4996496;28;20542;-68
2023/12/03 05:13:08;;;;;;;46.57;18.57;;;-0.80;96.60;;;;;;4976880;28;20488;-66
2023/12/03 05:15:36;;;;;;;38.43;18.77;;;-0.70;96.80;;;;;;4982474;28;20532;-67
2023/12/03 05:18:04;;;;;;;39.23;19.17;;;-0.80;96.70;;;;;;4993356;28;20810;-66
2023/12/03 05:20:32;;;;;;;34.67;17.37;;;-0.80;96.80;;;;;;4989014;28;20488;-67
2023/12/03 05:22:59;;;;;;;47.60;21.97;;;-0.70;96.80;;;;;;5002222;28;20524;-67
2023/12/03 05:25:25;;;;;;;54.17;23.10;;;-0.70;96.80;;;;;;5005873;28;20476;-67
2023/12/03 05:27:52;;;;;;;49.93;22.03;;;-0.80;96.70;;;;;;4998054;28;20674;-67
2023/12/03 05:30:19;;;;;;;55.83;22.80;;;-0.90;96.70;;;;;;4997938;28;20501;-67
2023/12/03 05:32:47;;;;;;;37.90;18.47;;;-0.90;96.80;;;;;;4995801;28;20493;-67
2023/12/03 05:35:14;;;;;;;41.50;19.70;;;-0.80;96.80;;;;;;4985313;28;20482;-66
2023/12/03 05:37:41;;;;;;;52.90;19.63;;;-0.80;96.80;;;;;;4988823;28;20508;-66
2023/12/03 05:40:10;;;;;;;44.50;21.73;;;-0.80;96.70;;;;;;4980580;28;20913;-67
2023/12/03 05:42:37;;;;;;;46.20;20.30;;;-0.80;96.80;;;;;;5004442;28;20487;-67
2023/12/03 05:45:05;;;;;;;46.13;22.40;;;-0.80;96.90;;;;;;4957880;28;20486;-66
2023/12/03 05:47:32;;;;;;;43.03;22.03;;;-0.80;96.80;;;;;;4995924;28;20473;-67
2023/12/03 05:50:02;;;;;;;39.63;19.17;;;-0.80;96.80;;;;;;4993256;28;20489;-68
2023/12/03 05:52:29;;;;;;;47.83;20.80;;;-0.80;96.90;;;;;;4983023;28;20489;-67
2023/12/03 05:54:56;;;;;;;46.83;22.27;;;-0.80;96.80;;;;;;4980069;28;20540;-66
2023/12/03 05:57:23;;;;;;;40.20;19.83;;;-0.80;97.10;;;;;;4990410;28;20523;-66
2023/12/03 05:59:50;;;;;;;44.53;20.33;;;-0.70;96.90;;;;;;4997793;28;20535;-67
2023/12/03 06:02:17;;;;;;;38.13;17.43;;;-0.60;97.00;;;;;;4986545;28;20956;-67
2023/12/03 06:04:44;;;;;;;41.30;18.03;;;-0.50;96.80;;;;;;4998050;28;20481;-67
2023/12/03 06:07:13;;;;;;;37.87;16.50;;;-0.50;96.50;;;;;;4981630;28;20492;-67
2023/12/03 06:09:40;;;;;;;45.73;21.73;;;-0.60;96.40;;;;;;4994236;28;21011;-67
2023/12/03 06:12:07;;;;;;;48.40;19.10;;;-0.60;96.50;;;;;;5012493;28;20482;-66
2023/12/03 06:14:34;;;;;;;38.47;20.70;;;-0.70;96.50;;;;;;4976399;28;20492;-68
2023/12/03 06:17:01;;;;;;;46.40;22.70;;;-0.80;96.60;;;;;;4993032;28;20525;-67
2023/12/03 06:19:28;;;;;;;52.13;22.17;;;-1.00;96.30;;;;;;4998317;28;20489;-67
2023/12/03 06:21:55;;;;;;;44.90;21.80;;;-1.10;96.40;;;;;;5002347;28;20476;-67
2023/12/03 06:24:25;;;;;;;38.80;18.47;;;-1.20;96.30;;;;;;4989071;28;21074;-67
2023/12/03 06:26:52;;;;;;;40.37;19.93;;;-1.20;96.30;;;;;;5014093;28;20517;-67
2023/12/03 06:29:19;;;;;;;36.63;17.33;;;-1.20;96.50;;;;;;4993084;28;20544;-67
2023/12/03 06:31:48;;;;;;;38.43;19.93;;;-1.20;96.40;;;;;;4986879;28;20901;-67
2023/12/03 06:34:15;;;;;;;45.90;21.70;;;-1.20;96.50;;;;;;4980349;28;20580;-67
2023/12/03 06:36:42;;;;;;;44.50;20.17;;;-1.30;96.30;;;;;;5000518;28;20557;-67
2023/12/03 06:39:09;;;;;;;54.30;16.73;;;-1.20;96.30;;;;;;4960520;28;20485;-67
2023/12/03 06:41:37;;;;;;;42.13;20.00;;;-1.20;96.20;;;;;;5005386;28;20834;-67
2023/12/03 06:44:04;;;;;;;41.23;19.10;;;-1.30;96.10;;;;;;5004069;28;20535;-67
2023/12/03 06:46:31;;;;;;;51.07;20.90;;;-1.30;96.20;;;;;;4972749;28;20972;-67
2023/12/03 06:48:58;;;;;;;36.93;17.00;;;-1.50;96.00;;;;;;5000530;28;21040;-67
2023/12/03 06:51:25;;;;;;;40.13;18.93;;;-1.50;96.10;;;;;;4979734;28;20492;-67
2023/12/03 06:53:51;;;;;;;46.97;20.17;;;-1.60;96.00;;;;;;4987845;28;20496;-67
2023/12/03 06:56:18;;;;;;;41.87;18.20;;;-1.60;96.10;;;;;;4995681;28;20488;-67
2023/12/03 06:58:46;;;;;;;44.47;20.13;;;-1.50;96.10;;;;;;4984327;28;20523;-67
2023/12/03 07:01:14;;;;;;;42.00;21.17;;;-1.60;96.00;;;;;;4981685;28;20535;-67
2023/12/03 07:03:41;;;;;;;37.63;18.13;;;-1.60;96.00;;;;;;5005468;28;20879;-67
2023/12/03 07:06:08;;;;;;;39.57;20.03;;;-1.70;96.10;;;;;;4997542;28;20577;-67
2023/12/03 07:08:35;;;;;;;51.80;18.63;;;-1.60;96.50;;;;;;5000185;28;20546;-67
2023/12/03 07:11:02;;;;;;;36.37;18.50;;;-1.60;96.20;;;;;;4999989;28;20479;-67
2023/12/03 07:13:29;;;;;;;79.43;21.37;;;-1.50;96.20;;;;;;4962826;28;20477;-67
2023/12/03 07:15:57;;;;;;;42.73;17.90;;;-1.40;96.10;;;;;;4987182;28;20485;-67
2023/12/03 07:18:24;;;;;;;40.83;18.53;;;-1.30;96.20;;;;;;5007671;28;20548;-67
2023/12/03 07:20:51;;;;;;;38.57;17.70;;;-1.20;96.20;;;;;;4976730;28;21517;-67
2023/12/03 07:23:18;;;;;;;34.90;16.17;;;-1.10;96.10;;;;;;5014967;28;20489;-67
2023/12/03 07:25:45;;;;;;;37.63;18.30;;;-1.00;96.00;;;;;;4964604;28;20554;-66
2023/12/03 07:28:12;;;;;;;37.07;17.70;;;-1.00;95.60;;;;;;4989805;28;20492;-65
2023/12/03 07:30:38;;;;;;;49.93;22.03;;;-1.30;95.40;;;;;;4983610;28;20476;-66
2023/12/03 07:33:07;;;;;;;48.37;20.63;;;-1.50;95.60;;;;;;4995179;28;20485;-66
2023/12/03 07:35:34;;;;;;;49.57;20.10;;;-1.70;96.10;;;;;;4982445;28;20539;-67
2023/12/03 07:38:00;;;;;;;47.80;18.20;;;-1.80;96.40;;;;;;4999307;28;21008;-67
2023/12/03 07:40:27;;;;;;;40.23;19.10;;;-1.90;96.50;;;;;;5004739;28;20485;-67
2023/12/03 07:42:54;;;;;;;38.47;17.77;;;;;;;;;;4969136;28;20538;-67
2023/12/03 07:45:24;;;;;;;45.70;19.30;;;-1.80;96.60;;;;;;5002391;28;20539;-67
2023/12/03 07:47:51;;;;;;;66.47;23.73;;;-1.70;96.60;;;;;;5009390;28;20974;-67
2023/12/03 07:50:19;;;;;;;52.43;21.73;;;-1.70;96.20;;;;;;4989034;28;20811;-67
2023/12/03 07:52:46;;;;;;;48.30;24.23;;;-1.80;95.90;;;;;;4984852;28;20520;-67
2023/12/03 07:55:13;;;;;;;59.13;21.67;;;-1.90;96.10;;;;;;4996089;28;20503;-67
2023/12/03 07:57:40;;;;;;;46.37;21.33;;;-1.90;96.20;;;;;;4992874;28;20479;-67
2023/12/03 08:00:08;;;;;;;40.60;18.80;;;-1.90;96.30;;;;;;4995561;28;20484;-67
2023/12/03 08:02:35;;;;;;;51.10;19.93;;;-1.90;96.30;;;;;;4993614;28;20493;-67
2023/12/03 08:05:02;;;;;;;37.73;17.77;;;-1.90;96.40;;;;;;5005511;28;20547;-67
2023/12/03 08:07:31;;;;;;;47.53;20.70;;;-1.90;96.60;;;;;;4999002;28;20477;-67
2023/12/03 08:10:01;;;;;;;46.77;18.70;;;-1.70;96.80;;;;;;4984528;28;20481;-67
2023/12/03 08:12:29;;;;;;;51.83;22.67;;;-1.30;97.00;;;;;;4998138;28;20500;-67
2023/12/03 08:14:55;;;;;;;43.43;21.43;;;-0.30;96.40;;;;;;5009113;28;20500;-67
2023/12/03 08:17:22;;;;;;;51.80;22.23;;;0.50;95.30;;;;;;4995181;28;20486;-67
2023/12/03 08:19:52;;;;;;;38.63;21.43;;;0.80;95.20;;;;;;4991942;28;20793;-68
2023/12/03 08:22:19;;;;;;;62.07;21.80;;;1.90;93.90;;;;;;4966949;28;20484;-67
2023/12/03 08:24:52;;;;;;;41.60;21.30;;;2.50;93.20;;;;;;4984448;28;20825;-67
2023/12/03 08:27:19;;;;;;;36.53;19.80;;;2.90;92.70;;;;;;4995063;28;20867;-68
2023/12/03 08:29:49;;;;;;;44.60;21.13;;;3.10;91.40;;;;;;4980132;28;20581;-67
2023/12/03 08:32:20;;;;;;;40.67;23.00;;;3.10;90.70;;;;;;5000486;28;20567;-67
2023/12/03 08:34:47;;;;;;;47.43;22.80;;;3.10;91.00;;;;;;4970155;28;20521;-67
2023/12/03 08:37:14;;;;;;;55.60;23.70;;;3.10;90.90;;;;;;5000621;28;20919;-68
2023/12/03 08:39:41;;;;;;;43.40;22.27;;;3.00;90.40;;;;;;4998533;28;20468;-67
2023/12/03 08:42:10;;;;;;;41.80;22.60;;;3.10;90.70;;;;;;4978912;28;20490;-67
2023/12/03 08:44:37;;;;;;;43.93;22.23;;;3.20;90.50;;;;;;4993141;28;20488;-68
2023/12/03 08:47:04;;;;;;;47.97;23.57;;;3.30;90.90;;;;;;4983000;28;20465;-68
2023/12/03 08:49:31;;;;;;;42.80;22.10;;;3.40;90.70;;;;;;4961639;28;20489;-68
2023/12/03 08:51:57;;;;;;;45.60;22.90;;;3.50;90.30;;;;;;4975074;28;20532;-67
2023/12/03 08:54:24;;;;;;;41.20;22.47;;;3.30;89.70;;;;;;4991056;28;20489;-68
2023/12/03 08:56:51;;;;;;;56.87;21.37;;;;;;;;;;5004041;28;20891;-68
2023/12/03 08:59:23;;;;;;;44.47;26.40;;;3.00;89.80;;;;;;4990239;28;20493;-68
2023/12/03 09:01:49;;;;;;;21.77;12.80;;;2.60;90.00;;;;;;5001301;28;21103;-69
2023/12/03 09:04:16;;;;;;;50.10;23.47;;;2.50;90.50;;;;;;4971971;28;20482;-68
2023/12/03 09:06:44;;;;;;;53.43;22.63;;;2.20;90.80;;;;;;5005502;28;20485;-68
2023/12/03 09:09:11;;;;;;;44.00;24.00;;;2.00;91.50;;;;;;4989143;28;20491;-68
2023/12/03 09:11:42;;;;;;;42.07;22.90;;;1.80;91.60;;;;;;4992986;28;20489;-68
2023/12/03 09:14:09;;;;;;;43.20;27.23;;;1.40;91.20;;;;;;4972191;28;20965;-68
2023/12/03 09:16:37;;;;;;;43.53;26.20;;;1.20;91.40;;;;;;5011393;28;20576;-68
2023/12/03 09:19:04;;;;;;;47.30;27.40;;;1.10;92.20;;;;;;4991328;28;20512;-68
2023/12/03 09:21:30;;;;;;;40.73;20.67;;;0.90;92.50;;;;;;4978676;28;20480;-68
2023/12/03 09:23:58;;;;;;;44.20;24.90;;;;;;;;;;4965738;28;20594;-67
2023/12/03 09:26:25;;;;;;;56.47;27.53;;;0.50;93.20;;;;;;5000416;28;20512;-68
2023/12/03 09:28:51;;;;;;;53.13;28.50;;;0.50;93.00;;;;;;4975852;28;20504;-68
2023/12/03 09:31:18;;;;;;;54.67;25.93;;;0.30;93.10;;;;;;4982348;28;20534;-69
2023/12/03 09:33:47;;;;;;;32.10;16.80;;;0.20;93.20;;;;;;5003290;28;20481;-69
2023/12/03 09:36:14;;;;;;;29.27;10.53;;;0.50;93.80;;;;;;4994194;28;20497;-69
2023/12/03 09:38:40;;;;;;;46.53;22.60;;;0.40;93.40;;;;;;4992009;28;20481;-69
2023/12/03 09:41:13;;;;;;;49.93;23.80;;;0.40;93.50;;;;;;5002260;28;20835;-69
2023/12/03 09:43:43;;;;;;;36.63;20.53;;;0.40;93.60;;;;;;4996165;28;20476;-69
2023/12/03 09:46:13;;;;;;;40.87;25.80;;;0.20;93.40;;;;;;5003456;28;21051;-70
2023/12/03 09:48:42;;;;;;;32.50;17.30;;;0.30;93.90;;;;;;4971555;28;20494;-69
2023/12/03 09:51:11;;;;;;;45.70;26.10;;;0.30;93.70;;;;;;4997488;28;20572;-69
2023/12/03 09:53:43;;;;;;;44.47;27.37;;;0.20;93.50;;;;;;5002433;28;20485;-70
2023/12/03 09:56:11;;;;;;;37.40;21.77;;;0.30;94.20;;;;;;4993483;28;20490;-69
2023/12/03 09:58:39;;;;;;;48.47;20.07;;;0.50;94.20;;;;;;4958552;28;20493;-71
2023/12/03 10:01:06;;;;;;;46.77;24.23;;;0.60;94.20;;;;;;4988150;28;20887;-69
2023/12/03 10:03:33;;;;;;;36.60;21.53;;;0.50;94.00;;;;;;4979885;28;20482;-71
2023/12/03 10:06:00;;;;;;;32.93;17.27;;;0.70;94.60;;;;;;4992056;28;20571;-69
2023/12/03 10:08:30;;;;;;;37.57;24.93;;;0.70;94.50;;;;;;4988215;28;20822;-72
2023/12/03 10:11:02;;;;;;;53.00;21.40;;;0.60;94.30;;;;;;4991722;28;21027;-70
2023/12/03 10:13:31;;;;;;;41.77;26.33;;;0.40;94.10;;;;;;4991676;28;20477;-70
2023/12/03 10:15:57;;;;;;;35.77;19.30;;;0.50;94.90;;;;;;4980766;28;20904;-69
2023/12/03 10:18:24;;;;;;;41.47;20.80;;;0.50;94.70;;;;;;4997493;28;20486;-71
2023/12/03 10:21:04;;;;;;;43.70;22.53;;;0.30;94.20;;;;;;4998516;28;20473;-71
2023/12/03 10:23:32;;;;;;;42.33;25.70;;;0.50;94.30;;;;;;5006450;28;20477;-71
2023/12/03 10:26:10;;;;;;;38.03;21.67;;;0.50;94.50;;;;;;4948683;28;21346;-70
2023/12/03 10:28:37;;;;;;;37.93;23.50;;;0.40;94.20;;;;;;4991144;28;20488;-71
2023/12/03 10:31:04;;;;;;;45.23;23.93;;;0.50;94.10;;;;;;5005385;28;20563;-71
2023/12/03 10:33:31;;;;;;;44.73;23.70;;;0.50;94.20;;;;;;4993348;28;20481;-69
2023/12/03 10:36:03;;;;;;;32.13;19.43;;;0.60;94.20;;;;;;5009759;28;20478;-71
2023/12/03 10:38:38;;;;;;;49.93;16.70;;;0.80;93.80;;;;;;4987729;28;20824;-71
2023/12/03 10:41:06;;;;;;;35.37;21.07;;;1.00;93.80;;;;;;4998343;28;20488;-72
2023/12/03 10:43:35;;;;;;;39.47;21.77;;;0.80;93.60;;;;;;4995995;28;20587;-71
2023/12/03 10:46:04;;;;;;;28.30;16.27;;;0.90;94.20;;;;;;4971373;28;20476;-69
2023/12/03 10:48:32;;;;;;;35.60;18.73;;;1.00;94.10;;;;;;5012660;28;20480;-69
2023/12/03 10:51:03;;;;;;;26.03;13.80;;;1.00;94.00;;;;;;4991889;28;20834;-72
2023/12/03 10:53:32;;;;;;;36.27;20.20;;;0.90;93.60;;;;;;4997409;28;21175;-71
2023/12/03 10:56:02;;;;;;;43.17;15.03;;;1.20;94.00;;;;;;5002120;28;20480;-71
2023/12/03 10:58:30;;;;;;;35.43;17.03;;;1.30;93.70;;;;;;4987501;28;20491;-71
2023/12/03 11:01:02;;;;;;;27.13;9.70;;;1.30;93.40;;;;;;4999376;28;20567;-72
2023/12/03 11:03:39;;;;;;;37.47;17.40;;;1.30;93.70;;;;;;4999423;28;20578;-72
2023/12/03 11:06:10;;;;;;;39.27;22.03;;;1.30;93.10;;;;;;4988634;28;20936;-70
2023/12/03 11:08:38;;;;;;;28.37;12.50;;;1.70;94.10;;;;;;5001313;28;20484;-71
2023/12/03 11:11:08;;;;;;;35.97;22.37;;;1.60;92.90;;;;;;4984059;28;20488;-73
2023/12/03 11:13:36;;;;;;;36.50;18.30;;;1.50;93.30;;;;;;4977684;28;21027;-74
2023/12/03 11:16:04;;;;;;;32.57;20.57;;;1.30;93.10;;;;;;4991484;28;20481;-73
2023/12/03 11:18:33;;;;;;;23.23;14.83;;;1.30;93.30;;;;;;4996798;28;20485;-72
2023/12/03 11:21:09;;;;;;;21.30;11.97;;;1.30;92.90;;;;;;4996598;28;20489;-72
2023/12/03 11:23:47;;;;;;;37.97;20.53;;;1.40;93.60;;;;;;4984331;28;20484;-72
2023/12/03 11:26:18;;;;;;;25.50;16.03;;;1.20;92.60;;;;;;4996205;28;20523;-72
2023/12/03 11:28:52;;;;;;;29.80;11.87;;;;;;;;;;4970705;28;20775;-72
2023/12/03 11:31:18;;;;;;;28.67;17.63;;;1.20;92.80;;;;;;4975048;28;20621;-72
2023/12/03 11:33:51;;;;;;;21.83;11.07;;;1.30;92.60;;;;;;4975230;28;20472;-75
2023/12/03 11:36:18;;;;;;;27.27;15.90;;;1.50;93.00;;;;;;4979194;28;20548;-73
2023/12/03 11:38:47;;;;;;;19.50;8.30;;;1.60;93.40;;;;;;5004221;28;20570;-73
2023/12/03 11:41:15;;;;;;;16.63;9.20;;;1.70;93.00;;;;;;5004633;28;20546;-71
2023/12/03 11:43:42;;;;;;;31.17;16.70;;;1.70;92.30;;;;;;4958139;28;20497;-74
2023/12/03 11:46:10;;;;;;;30.53;14.00;;;1.70;92.50;;;;;;4984327;28;21035;-73
2023/12/03 11:48:38;;;;;;;50.50;18.60;;;1.70;92.70;;;;;;4978202;28;20481;-71
2023/12/03 11:51:08;;;;;;;30.13;18.43;;;1.70;92.00;;;;;;4973101;28;21037;-72
2023/12/03 11:53:42;;;;;;;39.13;15.90;;;1.80;92.90;;;;;;4978156;28;20493;-73
2023/12/03 11:56:10;;;;;;;35.70;9.53;;;1.80;92.10;;;;;;5000393;28;20895;-72
2023/12/03 11:58:39;;;;;;;22.67;13.50;;;;;;;;;;4974779;28;20892;-72
2023/12/03 12:01:06;;;;;;;31.03;15.63;;;1.90;92.20;;;;;;4994066;28;20515;-71
2023/12/03 12:03:33;;;;;;;42.17;13.73;;;2.10;92.40;;;;;;4968912;28;20493;-73
2023/12/03 12:05:59;;;;;;;33.63;17.20;;;2.10;92.10;;;;;;4961980;28;20524;-71
2023/12/03 12:08:26;;;;;;;28.10;12.13;;;2.20;91.90;;;;;;4992573;28;20599;-71
2023/12/03 12:10:53;;;;;;;26.33;9.77;;;2.20;91.80;;;;;;5005995;28;20534;-71
2023/12/03 12:13:20;;;;;;;15.63;6.57;;;2.10;91.70;;;;;;5002374;28;21085;-72
2023/12/03 12:15:48;;;;;;;12.57;8.27;;;2.30;92.10;;;;;;5003619;28;20464;-72
2023/12/03 12:18:19;;;;;;;28.20;13.07;;;2.30;92.00;;;;;;4980911;28;20487;-70
2023/12/03 12:20:46;;;;;;;30.40;15.70;;;2.20;91.90;;;;;;4987328;28;20873;-72
2023/12/03 12:23:12;;;;;;;43.80;12.27;;;2.40;92.30;;;;;;4979731;28;20616;-73
2023/12/03 12:25:39;;;;;;;30.57;17.63;;;2.50;92.10;;;;;;4997426;28;20550;-71
2023/12/03 12:28:06;;;;;;;28.80;13.30;;;2.20;91.60;;;;;;5000909;28;20479;-72
2023/12/03 12:30:33;;;;;;;29.30;15.10;;;2.30;91.70;;;;;;4986248;28;21015;-72
2023/12/03 12:33:03;;;;;;;28.80;16.23;;;2.40;91.60;;;;;;4977792;28;20478;-73
2023/12/03 12:35:30;;;;;;;23.10;12.70;;;2.50;91.90;;;;;;5006379;28;20884;-72